Time;durP1;ratioP1;P1;durP2;ratioP2;P2;SDS_P1;SDS_P2;PMS_P1;PMS_P2;Temp;Humidity;BMP_temperature;BMP_pressure;BME280_temperature;BME280_humidity;BME280_pressure;Samples;Min_cycle;Max_cycle;Signal;HPM_P1;HPM_P2
2022/10/11 00:02:04;;;;;;;2.90;1.48;;;;;;;17.47;61.05;102526.25;6324303;22;20002;-87
2022/10/11 00:04:30;;;;;;;2.20;1.13;;;;;;;17.48;61.08;102532.31;6323816;22;20359;-88
2022/10/11 00:06:55;;;;;;;3.65;1.67;;;;;;;17.48;61.31;102540.13;6324055;22;20507;-86
2022/10/11 00:09:20;;;;;;;4.35;1.42;;;;;;;17.48;61.25;102540.13;6323308;22;20006;-87
2022/10/11 00:11:46;;;;;;;2.83;1.30;;;;;;;17.48;61.16;102541.03;6323650;22;20422;-87
2022/10/11 00:14:11;;;;;;;3.25;1.38;;;;;;;17.47;61.09;102544.47;6323926;22;20002;-87
2022/10/11 00:16:43;;;;;;;2.25;1.10;;;;;;;17.48;61.16;102545.34;6351515;22;20033;-86
2022/10/11 00:19:10;;;;;;;3.00;1.30;;;;;;;17.47;61.06;102544.47;6326270;22;20007;-86
2022/10/11 00:21:35;;;;;;;2.58;1.20;;;;;;;17.46;61.28;102537.53;6350121;22;20024;-86
2022/10/11 00:24:01;;;;;;;3.42;1.38;;;;;;;17.48;60.94;102545.34;6324903;22;20085;-86
2022/10/11 00:26:26;;;;;;;4.30;1.20;;;;;;;17.46;61.08;102537.53;6299004;22;20094;-86
2022/10/11 00:28:52;;;;;;;4.15;1.38;;;;;;;17.47;60.86;102547.06;6301818;22;20010;-87
2022/10/11 00:31:17;;;;;;;3.58;1.30;;;;;;;17.47;61.05;102548.81;6325661;22;20093;-85
2022/10/11 00:33:49;;;;;;;2.00;1.10;;;;;;;17.45;61.09;102546.16;6326782;22;20013;-86
2022/10/11 00:36:16;;;;;;;2.75;1.40;;;;;;;17.46;61.16;102537.53;6349653;22;20006;-83
2022/10/11 00:38:43;;;;;;;3.03;1.30;;;;;;;17.47;61.30;102554.88;6349252;22;20082;-85
2022/10/11 00:41:09;;;;;;;2.47;1.17;;;;;;;17.46;61.04;102549.66;6349748;22;20127;-85
2022/10/11 00:43:35;;;;;;;3.50;1.30;;;;;;;17.45;61.18;102551.38;6352389;22;20430;-85
2022/10/11 00:46:49;;;;;;;3.22;1.25;;;;;;;17.47;61.00;102556.63;6354367;22;20029;-85
2022/10/11 00:52:50;;;;;;;3.00;1.30;;;;;;;17.46;60.94;102549.66;6355866;22;20271;-85
2022/10/11 00:55:19;;;;;;;2.58;1.20;;;;;;;17.45;61.04;102551.38;6354106;22;20006;-86
2022/10/11 00:57:48;;;;;;;2.97;1.30;;;;;;;17.46;60.91;102553.16;6353039;22;20079;-86
2022/10/11 01:00:15;;;;;;;2.97;1.08;;;;;;;17.46;60.92;102560.06;6380055;22;19998;-85
2022/10/11 01:02:41;;;;;;;2.63;1.10;;;;;;;17.44;60.96;102560.06;6326803;22;20014;-85
2022/10/11 01:05:17;;;;;;;2.83;1.30;;;;;;;17.45;60.96;102561.78;6354357;22;20022;-85
2022/10/11 01:07:45;;;;;;;3.63;1.20;;;;;;;17.44;61.13;102567.84;6358020;22;20022;-86
2022/10/11 01:10:11;;;;;;;2.17;1.40;;;;;;;17.45;60.80;102563.53;6355768;22;20031;-85
2022/10/11 01:12:47;;;;;;;3.17;1.10;;;;;;;17.44;61.14;102560.06;6353038;22;20426;-85
2022/10/11 01:15:23;;;;;;;2.22;1.23;;;;;;;17.44;60.93;102560.06;6379651;22;20010;-86
2022/10/11 01:34:31;;;;;;;2.35;1.30;;;;;;;17.42;60.79;102572.16;6313958;22;20389;-83
2022/10/11 01:37:15;;;;;;;3.85;1.20;;;;;;;17.43;60.82;102571.28;6343466;22;20022;-83
2022/10/11 01:39:55;;;;;;;2.58;1.00;;;;;;;17.42;60.98;102573.84;6344063;22;20010;-83
2022/10/11 01:42:22;;;;;;;2.15;1.00;;;;;;;17.41;60.81;102575.59;6344309;22;20089;-82
2022/10/11 01:44:49;;;;;;;3.35;1.10;;;;;;;17.40;61.01;102576.44;6291830;22;20007;-83
2022/10/11 01:47:19;;;;;;;2.03;1.10;;;;;;;17.40;61.02;102583.38;6342799;22;20019;-82
2022/10/11 01:49:55;;;;;;;3.45;1.20;;;;;;;17.41;60.81;102583.41;6317487;22;20011;-82
2022/10/11 01:52:20;;;;;;;1.88;1.05;;;;;;;17.40;60.82;102581.66;6343589;22;20006;-82
2022/10/11 01:55:17;;;;;;;2.17;1.10;;;;;;;17.42;60.80;102586.88;6344130;22;20006;-83
2022/10/11 01:57:55;;;;;;;4.88;1.50;;;;;;;17.41;60.71;102582.53;6327139;22;20018;-84
2022/10/11 02:00:24;;;;;;;2.65;1.00;;;;;;;17.39;61.05;102577.28;6370863;22;20037;-82
2022/10/11 02:03:08;;;;;;;2.17;1.00;;;;;;;17.41;60.87;102590.34;6370078;22;20012;-82
2022/10/11 02:05:48;;;;;;;1.63;1.00;;;;;;;17.41;61.06;102596.41;6371264;22;20022;-82
2022/10/11 02:08:20;;;;;;;3.45;1.08;;;;;;;17.40;60.94;102597.28;6343377;22;20429;-82
2022/10/11 02:11:07;;;;;;;2.72;1.05;;;;;;;17.40;60.90;102591.19;6371743;22;20360;-83
2022/10/11 02:13:38;;;;;;;2.42;0.90;;;;;;;17.39;60.74;102585.09;6372065;22;20037;-82
2022/10/11 02:16:09;;;;;;;2.22;1.00;;;;;;;17.38;60.88;102591.16;6343674;22;20066;-82
2022/10/11 02:18:40;;;;;;;2.03;0.88;;;;;;;17.38;60.66;102596.38;6343969;22;20007;-82
2022/10/11 02:21:09;;;;;;;2.15;0.90;;;;;;;17.39;60.73;102597.22;6343303;22;20010;-82
2022/10/11 02:23:41;;;;;;;2.15;1.00;;;;;;;17.38;60.92;102588.56;6343603;22;20047;-83
2022/10/11 02:26:09;;;;;;;2.15;1.00;;;;;;;17.38;60.87;102585.09;6369442;22;20456;-83
2022/10/11 02:28:36;;;;;;;2.63;1.10;;;;;;;17.37;60.92;102586.78;6317654;22;20037;-83
2022/10/11 02:31:05;;;;;;;1.75;0.88;;;;;;;17.38;60.94;102579.88;6343003;22;20009;-83
2022/10/11 02:33:40;;;;;;;2.90;1.10;;;;;;;17.37;60.96;102575.50;6343152;22;20559;-83
2022/10/11 02:36:19;;;;;;;3.60;1.15;;;;;;;17.38;60.71;102577.28;6343357;22;20002;-83
2022/10/11 02:38:52;;;;;;;1.77;0.82;;;;;;;17.36;60.99;102577.25;6343496;22;20002;-83
2022/10/11 02:41:25;;;;;;;1.20;0.80;;;;;;;17.38;60.95;102577.28;6369768;22;20002;-83
2022/10/11 02:43:58;;;;;;;5.05;1.10;;;;;;;17.36;60.72;102573.75;6343422;22;20341;-81
2022/10/11 02:46:25;;;;;;;2.23;0.90;;;;;;;17.37;60.84;102573.78;6342930;22;20453;-82
2022/10/11 02:48:51;;;;;;;2.33;0.85;;;;;;;17.36;60.73;102574.63;6343168;22;20052;-82
2022/10/11 02:51:17;;;;;;;2.97;1.00;;;;;;;17.34;60.71;102584.13;6317470;22;20003;-82
2022/10/11 02:53:42;;;;;;;1.55;0.90;;;;;;;17.35;60.81;102585.00;6317387;22;20007;-82
2022/10/11 02:56:08;;;;;;;1.58;0.93;;;;;;;17.36;60.83;102586.78;6291371;22;20018;-82
2022/10/11 02:58:34;;;;;;;2.50;1.10;;;;;;;17.36;60.73;102585.03;6317458;22;20094;-82
2022/10/11 03:00:59;;;;;;;3.80;1.02;;;;;;;17.34;61.05;102583.25;6343255;22;20059;-82
2022/10/11 03:03:24;;;;;;;2.63;0.90;;;;;;;17.35;60.71;102591.09;6343673;22;20052;-84
2022/10/11 03:05:50;;;;;;;2.42;1.13;;;;;;;17.35;60.88;102593.69;6319280;22;20049;-82
2022/10/11 03:08:16;;;;;;;1.52;0.80;;;;;;;17.34;60.67;102589.34;6318895;22;20388;-81
2022/10/11 03:10:41;;;;;;;1.70;1.00;;;;;;;17.35;60.71;102592.81;6372787;22;20006;-82
2022/10/11 03:13:07;;;;;;;2.83;0.93;;;;;;;17.35;60.71;102592.81;6345414;22;20006;-83
2022/10/11 03:15:33;;;;;;;2.15;0.90;;;;;;;17.34;60.80;102596.28;6345110;22;20006;-82
2022/10/11 03:17:58;;;;;;;1.67;0.90;;;;;;;17.35;60.66;102600.63;6372882;22;20052;-82
2022/10/11 03:20:24;;;;;;;1.95;1.00;;;;;;;17.34;60.65;102596.28;6318868;22;20338;-82
2022/10/11 03:22:49;;;;;;;2.53;1.00;;;;;;;17.33;60.82;102597.97;6371321;22;20334;-82
2022/10/11 03:25:15;;;;;;;2.25;1.00;;;;;;;17.33;60.54;102602.31;6318906;22;20371;-81
2022/10/11 03:27:41;;;;;;;1.77;0.75;;;;;;;17.32;60.92;102598.84;6292820;22;20017;-82
2022/10/11 03:30:10;;;;;;;2.28;1.02;;;;;;;17.32;60.63;102601.44;6345682;22;20002;-82
2022/10/11 03:32:35;;;;;;;2.88;1.20;;;;;;;17.33;60.68;102597.97;6321120;22;20358;-82
2022/10/11 03:35:01;;;;;;;2.75;0.85;;;;;;;17.33;60.72;102595.38;6345072;22;20109;-81
2022/10/11 03:37:26;;;;;;;1.88;0.90;;;;;;;17.33;60.73;102597.97;6344793;22;20002;-82
2022/10/11 03:39:52;;;;;;;2.25;1.00;;;;;;;17.33;60.61;102603.19;6344734;22;20073;-82
2022/10/11 03:42:17;;;;;;;2.00;0.90;;;;;;;17.33;60.72;102608.38;6318991;22;20386;-83
2022/10/11 03:44:42;;;;;;;3.05;0.90;;;;;;;17.33;60.73;102605.78;6345415;22;20078;-83
2022/10/11 03:47:08;;;;;;;1.77;0.73;;;;;;;17.32;60.73;102611.84;6345456;22;20046;-83
2022/10/11 03:49:33;;;;;;;1.92;0.80;;;;;;;17.33;60.72;102608.38;6319467;22;20050;-82
2022/10/11 03:51:59;;;;;;;1.88;0.88;;;;;;;17.32;60.81;102611.84;6372139;22;20017;-84
2022/10/11 03:54:24;;;;;;;2.20;0.98;;;;;;;17.32;60.66;102617.06;6319474;22;20426;-83
2022/10/11 03:56:50;;;;;;;2.65;1.00;;;;;;;17.33;60.80;102610.13;6319260;22;20002;-83
2022/10/11 03:59:25;;;;;;;2.25;1.02;;;;;;;17.32;60.87;102611.84;6358769;22;20002;-88
2022/10/11 04:01:50;;;;;;;1.63;0.70;;;;;;;17.33;60.77;102618.78;6384319;22;20318;-83
2022/10/11 04:04:15;;;;;;;3.40;1.10;;;;;;;17.33;60.77;102613.59;6345693;22;20013;-83
2022/10/11 04:06:41;;;;;;;2.25;0.80;;;;;;;17.33;60.68;102612.72;6319838;22;20390;-83
2022/10/11 04:09:06;;;;;;;1.45;0.68;;;;;;;17.32;60.80;102614.44;6345557;22;20014;-81
2022/10/11 04:11:31;;;;;;;3.17;0.90;;;;;;;17.33;60.85;102618.78;6372963;22;19998;-83
2022/10/11 04:13:57;;;;;;;1.92;0.90;;;;;;;17.31;60.52;102619.63;6345282;22;20043;-82
2022/10/11 04:16:22;;;;;;;1.95;0.88;;;;;;;17.32;60.68;102622.25;6372276;22;20055;-81
2022/10/11 04:18:48;;;;;;;2.00;0.80;;;;;;;17.31;60.67;102622.22;6318635;22;20140;-82
2022/10/11 04:21:13;;;;;;;3.40;0.90;;;;;;;17.31;60.65;102623.13;6319068;22;20430;-82
2022/10/11 04:23:38;;;;;;;2.22;1.05;;;;;;;17.31;60.62;102627.44;6345350;22;20005;-82
2022/10/11 04:36:12;;;;;;;2.30;0.85;;;;;;;17.30;60.71;102629.16;6330190;22;20026;-88
2022/10/11 04:42:38;;;;;;;2.78;0.93;;;;;;;17.31;60.42;102637.84;6329982;22;20029;-86
2022/10/11 04:45:24;;;;;;;2.65;1.00;;;;;;;17.31;60.49;102635.22;6325539;22;20015;-87
2022/10/11 04:47:49;;;;;;;2.45;1.00;;;;;;;17.29;60.76;102637.81;6329009;22;20075;-85
2022/10/11 04:50:15;;;;;;;3.42;1.10;;;;;;;17.30;60.54;102630.88;6288962;22;20446;-87
2022/10/11 04:52:41;;;;;;;3.45;0.85;;;;;;;17.29;60.38;102630.03;6285230;22;20007;-86
2022/10/11 04:55:26;;;;;;;2.20;1.00;;;;;;;17.29;60.43;102640.44;6289862;22;20015;-87
2022/10/11 04:57:52;;;;;;;2.38;0.90;;;;;;;17.28;60.67;102636.91;6294671;22;20031;-86
2022/10/11 05:00:18;;;;;;;3.13;1.10;;;;;;;17.28;60.50;102638.66;6239633;22;20011;-88
2022/10/11 05:02:59;;;;;;;2.88;1.20;;;;;;;17.28;60.34;102638.66;6288660;22;20014;-85
2022/10/11 05:05:24;;;;;;;1.95;1.05;;;;;;;17.27;60.47;102634.31;6344462;22;20061;-81
2022/10/11 05:07:49;;;;;;;3.42;1.20;;;;;;;17.28;60.52;102641.25;6318165;22;20028;-83
2022/10/11 05:10:15;;;;;;;3.55;1.40;;;;;;;17.28;60.54;102643.84;6318561;22;20014;-83
2022/10/11 05:12:40;;;;;;;6.88;2.35;;;;;;;17.27;60.42;102642.13;6344787;22;20002;-80
2022/10/11 05:15:06;;;;;;;7.30;2.53;;;;;;;17.28;60.61;102654.25;6317917;22;20014;-82
2022/10/11 05:17:32;;;;;;;7.20;2.58;;;;;;;17.27;60.41;102648.19;6345150;22;20002;-82
2022/10/11 05:19:57;;;;;;;5.70;2.20;;;;;;;17.27;60.68;102644.72;6372652;22;20079;-82
2022/10/11 05:22:22;;;;;;;6.32;2.40;;;;;;;17.28;60.66;102651.66;6317699;22;20007;-82
2022/10/11 05:24:48;;;;;;;7.03;2.33;;;;;;;17.28;60.44;102654.25;6344028;22;20090;-82
2022/10/11 05:27:13;;;;;;;5.72;2.13;;;;;;;17.28;60.59;102660.34;6291642;22;20014;-80
2022/10/11 05:29:38;;;;;;;5.65;2.20;;;;;;;17.27;60.41;102653.41;6370222;22;20006;-80
2022/10/11 05:32:04;;;;;;;7.47;2.70;;;;;;;17.26;60.42;102656.81;6372451;22;20414;-82
2022/10/11 05:34:29;;;;;;;8.00;2.28;;;;;;;17.30;60.86;102659.50;6317558;22;20093;-82
2022/10/11 05:36:56;;;;;;;5.90;2.53;;;;;;;17.28;60.48;102667.28;6344347;22;19998;-82
2022/10/11 05:39:21;;;;;;;7.53;2.58;;;;;;;17.28;60.94;102668.16;6372246;22;20069;-84
2022/10/11 05:41:46;;;;;;;6.13;2.38;;;;;;;17.27;60.33;102668.13;6374478;22;20020;-84
2022/10/11 05:44:12;;;;;;;4.88;2.08;;;;;;;17.28;60.58;102662.06;6345918;22;20055;-84
2022/10/11 05:46:37;;;;;;;5.45;2.35;;;;;;;17.28;60.71;102667.28;6346211;22;20030;-85
2022/10/11 05:49:03;;;;;;;5.57;2.17;;;;;;;17.28;60.85;102668.16;6345748;22;20022;-84
2022/10/11 05:51:28;;;;;;;5.43;2.28;;;;;;;17.27;60.56;102673.34;6291790;22;20098;-83
2022/10/11 05:53:53;;;;;;;4.32;2.00;;;;;;;17.27;60.63;102669.00;6343452;22;20006;-83
2022/10/11 05:56:22;;;;;;;5.60;2.30;;;;;;;17.27;60.71;102671.59;6317764;22;20017;-84
2022/10/11 05:58:47;;;;;;;5.57;2.17;;;;;;;17.28;60.72;102675.94;6343523;22;20087;-82
2022/10/11 06:01:22;;;;;;;4.88;2.00;;;;;;;17.30;60.74;102676.00;6321432;22;20022;-85
2022/10/11 06:03:47;;;;;;;5.72;2.00;;;;;;;17.34;60.81;102684.75;6345095;22;20085;-86
2022/10/11 06:06:13;;;;;;;6.72;2.33;;;;;;;17.36;60.45;102686.53;6318513;22;20022;-87
2022/10/11 06:08:38;;;;;;;4.78;2.20;;;;;;;17.38;60.71;102684.84;6371797;22;20006;-85
2022/10/11 06:11:17;;;;;;;6.90;2.30;;;;;;;17.39;60.45;102685.72;6291801;22;20006;-84
2022/10/11 06:13:43;;;;;;;6.97;2.30;;;;;;;17.39;60.49;102691.78;6371244;22;19994;-85
2022/10/11 06:16:09;;;;;;;8.40;2.15;;;;;;;17.40;60.37;102693.56;6344994;22;20021;-81
2022/10/11 06:18:35;;;;;;;5.85;2.90;;;;;;;17.42;60.58;102693.56;6343492;22;20017;-84
2022/10/11 06:21:00;;;;;;;5.68;2.25;;;;;;;17.36;61.44;102691.75;6292483;22;20038;-80
2022/10/11 06:23:26;;;;;;;6.20;2.00;;;;;;;17.34;61.27;102692.56;6344115;22;20002;-79
2022/10/11 06:26:04;;;;;;;4.70;1.70;;;;;;;17.35;61.68;102692.56;6370943;22;20025;-79
2022/10/11 06:28:30;;;;;;;6.60;1.83;;;;;;;17.35;61.76;102691.69;6370765;22;20073;-79
2022/10/11 06:30:56;;;;;;;5.15;1.75;;;;;;;17.36;62.19;102690.88;6343426;22;20037;-79
2022/10/11 06:33:22;;;;;;;6.13;1.95;;;;;;;17.37;61.17;102695.22;6343146;22;20002;-79
2022/10/11 06:35:47;;;;;;;6.85;2.30;;;;;;;17.38;61.95;102699.59;6343724;22;20393;-79
2022/10/11 06:38:12;;;;;;;6.43;1.90;;;;;;;17.38;61.49;102703.06;6344280;22;20014;-79
2022/10/11 06:40:38;;;;;;;4.50;1.80;;;;;;;17.39;61.69;102710.00;6372507;22;20009;-79
2022/10/11 06:43:03;;;;;;;4.45;2.13;;;;;;;17.43;61.63;102710.97;6345756;22;19999;-79
2022/10/11 06:45:29;;;;;;;8.20;2.40;;;;;;;17.41;61.67;102712.66;6346093;22;20417;-79
2022/10/11 06:47:54;;;;;;;4.38;1.95;;;;;;;17.41;61.70;102710.91;6372266;22;20085;-79
2022/10/11 06:50:19;;;;;;;4.78;2.03;;;;;;;17.41;61.56;102721.34;6345831;22;20469;-79
2022/10/11 06:52:46;;;;;;;5.90;2.38;;;;;;;17.42;61.50;102719.59;6319383;22;20013;-79
2022/10/11 06:55:11;;;;;;;5.88;1.95;;;;;;;17.40;61.26;102724.78;6372469;22;19999;-79
2022/10/11 06:57:37;;;;;;;6.35;2.03;;;;;;;17.40;61.33;102724.78;6372869;22;20418;-79
2022/10/11 07:00:04;;;;;;;3.35;1.90;;;;;;;17.40;61.40;102730.00;6372500;22;20013;-79
2022/10/11 07:02:29;;;;;;;4.82;1.75;;;;;;;17.39;61.49;102733.44;6344104;22;20013;-79
2022/10/11 07:04:54;;;;;;;4.38;1.98;;;;;;;17.39;61.85;102733.44;6318684;22;20077;-79
2022/10/11 07:07:20;;;;;;;5.78;1.98;;;;;;;17.39;61.69;102745.56;6318762;22;20017;-78
2022/10/11 07:09:45;;;;;;;4.97;2.30;;;;;;;17.38;61.68;102741.22;6345075;22;20010;-78
2022/10/11 07:12:11;;;;;;;4.13;2.08;;;;;;;17.38;61.68;102736.03;6293349;22;20029;-78
2022/10/11 07:14:36;;;;;;;4.28;1.90;;;;;;;17.39;61.83;102745.56;6318796;22;20337;-78
2022/10/11 07:17:02;;;;;;;6.85;1.75;;;;;;;17.38;61.67;102742.09;6292653;22;20002;-78
2022/10/11 07:19:27;;;;;;;3.95;1.63;;;;;;;17.39;61.41;102749.03;6318539;22;20010;-78
2022/10/11 07:21:52;;;;;;;4.25;1.90;;;;;;;17.41;61.83;102751.69;6373465;22;20002;-79
2022/10/11 07:24:18;;;;;;;3.53;1.50;;;;;;;17.40;61.68;102752.56;6293517;22;20422;-79
2022/10/11 07:26:43;;;;;;;4.97;2.00;;;;;;;17.40;61.45;102750.81;6344876;22;20002;-78
2022/10/11 07:29:10;;;;;;;3.50;1.63;;;;;;;17.40;61.52;102745.63;6318383;22;20034;-78
2022/10/11 07:31:38;;;;;;;6.18;2.10;;;;;;;17.41;61.84;102754.28;6370725;22;20014;-78
2022/10/11 07:34:03;;;;;;;4.50;2.00;;;;;;;17.41;61.07;102760.38;6318591;22;19998;-78
2022/10/11 07:36:29;;;;;;;3.80;1.90;;;;;;;17.40;61.71;102758.63;6371573;22;20068;-78
2022/10/11 07:38:54;;;;;;;4.05;1.70;;;;;;;17.40;61.70;102757.75;6293357;22;20016;-78
2022/10/11 07:41:20;;;;;;;3.70;1.75;;;;;;;17.41;61.62;102760.38;6292218;22;20037;-79
2022/10/11 07:43:48;;;;;;;2.85;1.65;;;;;;;17.41;61.25;102762.97;6345018;22;20414;-79
2022/10/11 07:46:14;;;;;;;5.32;1.92;;;;;;;17.43;61.95;102765.63;6318834;22;20007;-78
2022/10/11 07:48:40;;;;;;;3.97;1.98;;;;;;;17.46;61.10;102770.88;6372412;22;20049;-78
2022/10/11 07:51:07;;;;;;;4.95;1.80;;;;;;;17.45;61.58;102767.41;6344440;22;20426;-78
2022/10/11 07:53:45;;;;;;;3.72;1.65;;;;;;;17.51;61.35;102769.28;6344058;22;20418;-79
2022/10/11 07:56:14;;;;;;;3.60;1.80;;;;;;;17.71;60.28;102768.81;6344027;22;20090;-79
2022/10/11 07:58:40;;;;;;;5.35;1.90;;;;;;;17.65;60.94;102774.75;6344298;22;20018;-79
2022/10/11 08:01:07;;;;;;;4.22;1.85;;;;;;;17.60;61.28;102772.06;6318068;22;20007;-78
2022/10/11 08:03:32;;;;;;;3.47;1.75;;;;;;;17.57;60.74;102778.91;6371877;22;20002;-78
2022/10/11 08:06:00;;;;;;;4.13;1.88;;;;;;;17.58;60.90;102783.28;6370256;22;20021;-79
2022/10/11 08:08:25;;;;;;;3.13;1.40;;;;;;;17.58;60.89;102780.69;6343877;22;20084;-79
2022/10/11 08:10:50;;;;;;;5.10;1.90;;;;;;;17.60;60.55;102779.00;6343601;22;20416;-79
2022/10/11 08:13:16;;;;;;;5.13;1.50;;;;;;;17.76;60.17;102782.81;6317753;22;20015;-78
2022/10/11 08:15:41;;;;;;;2.90;1.75;;;;;;;17.94;59.47;102784.94;6318542;22;20034;-78
2022/10/11 08:18:07;;;;;;;3.38;1.73;;;;;;;17.94;59.98;102784.94;6370453;22;19999;-78
2022/10/11 08:20:32;;;;;;;4.03;2.00;;;;;;;17.87;59.95;102789.13;6317319;22;20029;-78
2022/10/11 08:22:58;;;;;;;4.25;1.80;;;;;;;17.81;60.12;102791.56;6344010;22;20003;-79
2022/10/11 08:25:23;;;;;;;3.92;1.73;;;;;;;17.79;60.35;102794.16;6292291;22;20429;-78
2022/10/11 08:27:49;;;;;;;3.58;1.60;;;;;;;17.78;60.13;102799.34;6317591;22;20384;-78
2022/10/11 08:30:14;;;;;;;3.35;1.45;;;;;;;17.76;60.02;102795.81;6317503;22;20002;-79
2022/10/11 08:32:39;;;;;;;4.22;1.48;;;;;;;17.76;59.83;102801.91;6291908;22;20089;-79
2022/10/11 08:35:06;;;;;;;4.82;1.73;;;;;;;17.77;60.08;102801.06;6343871;22;20007;-78
2022/10/11 08:37:31;;;;;;;4.72;1.67;;;;;;;17.75;59.96;102802.75;6317523;22;20010;-78
2022/10/11 08:39:56;;;;;;;4.38;1.60;;;;;;;17.72;60.23;102805.28;6317664;22;20127;-79
2022/10/11 08:42:34;;;;;;;4.05;1.55;;;;;;;17.71;60.15;102806.16;6344317;22;20010;-79
2022/10/11 08:45:07;;;;;;;3.90;1.70;;;;;;;17.69;60.50;102805.22;6343767;22;20034;-79
2022/10/11 08:47:38;;;;;;;4.85;1.50;;;;;;;17.67;60.62;102805.19;6370091;22;20338;-79
2022/10/11 08:50:06;;;;;;;5.70;2.00;;;;;;;17.70;60.28;102804.38;6371555;22;20003;-79
2022/10/11 08:52:46;;;;;;;3.55;1.60;;;;;;;17.72;59.96;102809.63;6343626;22;20326;-79
2022/10/11 08:55:23;;;;;;;6.78;1.67;;;;;;;17.70;60.09;102806.97;6343443;22;20027;-78
2022/10/11 08:57:52;;;;;;;2.38;1.35;;;;;;;17.74;60.48;102813.13;6343745;22;20063;-79
2022/10/11 09:00:19;;;;;;;3.55;1.75;;;;;;;17.77;60.40;102814.09;6343574;22;20002;-78
2022/10/11 09:02:54;;;;;;;4.07;1.75;;;;;;;17.80;60.15;102818.47;6343775;22;20006;-78
2022/10/11 09:05:22;;;;;;;3.60;1.90;;;;;;;17.80;60.58;102819.34;6371525;22;19994;-79
2022/10/11 09:07:54;;;;;;;2.80;1.50;;;;;;;17.83;60.10;102810.75;6343723;22;20038;-79
2022/10/11 09:11:00;;;;;;;6.00;1.80;;;;;;;17.82;60.28;102814.22;6343183;22;20063;-79
2022/10/11 09:13:57;;;;;;;3.63;1.70;;;;;;;17.83;60.09;102811.66;6326624;22;20071;-79
2022/10/11 09:17:05;;;;;;;3.97;1.73;;;;;;;17.82;60.46;102815.09;6343554;22;20010;-79
2022/10/11 09:20:17;;;;;;;2.58;1.40;;;;;;;17.83;60.11;102810.75;6343818;22;20043;-78
2022/10/11 09:22:54;;;;;;;6.93;1.70;;;;;;;17.84;60.17;102815.13;6343310;22;20391;-79
2022/10/11 09:25:23;;;;;;;3.13;1.30;;;;;;;17.84;60.02;102812.53;6343278;22;20029;-78
2022/10/11 09:28:09;;;;;;;5.18;1.45;;;;;;;17.83;60.35;102818.56;6343144;22;20007;-78
2022/10/11 09:30:38;;;;;;;3.22;1.70;;;;;;;17.80;60.43;102816.75;6343268;22;20334;-79
2022/10/11 09:33:29;;;;;;;2.92;1.58;;;;;;;17.81;60.30;102826.34;6343084;22;20038;-79
2022/10/11 09:35:55;;;;;;;4.60;1.58;;;;;;;17.82;60.32;102828.09;6371378;22;20006;-79
2022/10/11 09:38:30;;;;;;;2.75;1.50;;;;;;;17.81;60.58;102823.72;6317199;22;20022;-78
2022/10/11 09:41:13;;;;;;;2.88;1.35;;;;;;;17.81;60.36;102831.53;6371351;22;20013;-78
2022/10/11 09:43:39;;;;;;;2.63;1.42;;;;;;;17.79;59.90;102822.81;6343226;22;20013;-78
2022/10/11 09:46:30;;;;;;;3.63;1.63;;;;;;;17.80;60.13;102832.38;6343315;22;20007;-78
2022/10/11 09:48:56;;;;;;;2.45;1.05;;;;;;;17.80;60.15;102827.16;6370885;22;20029;-79
2022/10/11 09:51:26;;;;;;;2.25;1.10;;;;;;;17.80;60.29;102829.75;6369417;22;20096;-78
2022/10/11 09:54:04;;;;;;;2.33;1.20;;;;;;;17.80;59.82;102829.75;6370858;22;19998;-79
2022/10/11 09:56:32;;;;;;;4.30;1.50;;;;;;;17.81;60.33;102831.53;6343449;22;20002;-79
2022/10/11 09:59:25;;;;;;;3.13;1.35;;;;;;;17.83;59.88;102828.97;6342836;22;20013;-79
2022/10/11 10:02:17;;;;;;;3.63;1.40;;;;;;;17.82;60.20;102824.63;6369203;22;20334;-78
2022/10/11 10:04:54;;;;;;;4.18;1.48;;;;;;;17.83;60.15;102828.97;6343006;22;20445;-79
2022/10/11 10:07:20;;;;;;;2.78;1.20;;;;;;;17.83;60.10;102828.97;6342823;22;20006;-79
2022/10/11 10:09:46;;;;;;;2.90;1.20;;;;;;;17.81;59.95;102825.44;6369292;22;20380;-79
2022/10/11 10:12:17;;;;;;;3.85;1.67;;;;;;;17.80;60.34;102816.75;6317114;22;20014;-79
2022/10/11 10:14:42;;;;;;;3.65;1.45;;;;;;;17.81;59.94;102823.72;6344652;22;20013;-79
2022/10/11 10:17:16;;;;;;;3.90;1.40;;;;;;;17.84;59.96;102821.22;6294242;22;20338;-78
2022/10/11 10:19:49;;;;;;;2.45;1.30;;;;;;;17.83;60.15;102822.06;6374376;22;20061;-78
2022/10/11 10:22:18;;;;;;;2.47;1.33;;;;;;;17.84;59.79;102821.22;6346543;22;20010;-79
2022/10/11 10:24:46;;;;;;;3.42;1.25;;;;;;;17.83;59.79;102827.28;6346834;22;20123;-79
2022/10/11 10:27:30;;;;;;;2.60;1.30;;;;;;;17.83;59.59;102824.69;6320985;22;20009;-79
2022/10/11 10:30:01;;;;;;;2.67;1.30;;;;;;;17.86;60.11;102819.50;6373117;22;20010;-79
2022/10/11 10:32:39;;;;;;;2.20;1.20;;;;;;;17.89;59.59;102822.16;6346208;22;20002;-79
2022/10/11 10:35:30;;;;;;;3.20;1.50;;;;;;;17.91;60.15;102822.22;6372372;22;20006;-79
2022/10/11 10:38:33;;;;;;;3.72;1.50;;;;;;;17.91;59.80;102824.81;6347123;22;20021;-79
2022/10/11 10:41:05;;;;;;;2.97;1.48;;;;;;;17.91;59.70;102816.13;6294936;22;20042;-79
2022/10/11 10:43:35;;;;;;;3.67;1.40;;;;;;;17.94;59.76;102818.78;6346730;22;20008;-79
2022/10/11 10:46:23;;;;;;;3.00;1.35;;;;;;;17.95;59.53;102810.13;6346524;22;20009;-79
2022/10/11 10:48:51;;;;;;;3.35;1.20;;;;;;;17.96;59.79;102814.50;6346094;22;20019;-79
2022/10/11 10:51:28;;;;;;;3.83;1.30;;;;;;;17.96;59.41;102827.50;6345987;22;20116;-79
2022/10/11 10:54:31;;;;;;;2.58;1.45;;;;;;;17.97;59.76;102817.13;6346054;22;20010;-79
2022/10/11 10:57:12;;;;;;;2.20;1.13;;;;;;;17.96;59.61;102806.69;6344825;22;20436;-79
2022/10/11 10:59:47;;;;;;;4.35;1.60;;;;;;;17.98;59.43;102812.78;6344442;22;20014;-80
2022/10/11 11:02:21;;;;;;;3.40;1.52;;;;;;;17.99;59.02;102812.84;6344261;22;20013;-79
2022/10/11 11:05:12;;;;;;;2.97;1.55;;;;;;;17.99;59.73;102806.75;6344453;22;20006;-79
2022/10/11 11:08:15;;;;;;;3.80;1.60;;;;;;;18.00;59.23;102816.31;6344379;22;20006;-79
2022/10/11 11:10:49;;;;;;;3.17;1.42;;;;;;;17.99;59.57;102818.03;6372489;22;19999;-80
2022/10/11 11:13:27;;;;;;;2.05;1.10;;;;;;;17.99;59.05;102814.56;6344871;22;20085;-79
2022/10/11 11:16:01;;;;;;;3.38;1.40;;;;;;;17.99;59.87;102807.63;6344564;22;20045;-79
2022/10/11 11:18:30;;;;;;;4.85;1.40;;;;;;;17.98;59.75;102803.25;6344324;22;20006;-79
2022/10/11 11:21:38;;;;;;;4.05;1.30;;;;;;;17.98;59.24;102805.84;6344783;22;20013;-79
2022/10/11 11:24:09;;;;;;;4.22;1.30;;;;;;;17.98;59.59;102810.19;6370049;22;20006;-79
2022/10/11 11:26:50;;;;;;;2.67;1.27;;;;;;;17.97;59.40;102811.06;6344487;22;20449;-79
2022/10/11 11:29:20;;;;;;;2.58;1.30;;;;;;;17.95;59.36;102803.19;6344455;22;20618;-79
2022/10/11 11:31:45;;;;;;;3.70;1.30;;;;;;;17.95;59.50;102804.94;6345889;22;20014;-80
2022/10/11 11:34:27;;;;;;;5.03;1.48;;;;;;;17.94;59.63;102809.25;6348024;22;20014;-79
2022/10/11 11:36:58;;;;;;;2.67;1.30;;;;;;;17.95;59.65;102802.31;6377935;22;20012;-80
2022/10/11 11:39:35;;;;;;;3.00;1.27;;;;;;;17.95;59.60;102805.81;6350840;22;20336;-80
2022/10/11 11:42:08;;;;;;;3.33;1.40;;;;;;;17.98;59.77;102805.84;6350606;22;20016;-79
2022/10/11 11:44:39;;;;;;;3.63;1.27;;;;;;;18.00;59.36;102800.69;6350004;22;20006;-81
2022/10/11 11:47:16;;;;;;;3.78;1.30;;;;;;;18.02;59.12;102802.47;6376766;22;19999;-80
2022/10/11 11:49:48;;;;;;;2.75;1.10;;;;;;;18.01;59.50;102792.91;6347572;22;20006;-80
2022/10/11 11:52:25;;;;;;;3.35;1.27;;;;;;;18.04;59.25;102800.78;6374094;22;20006;-80
2022/10/11 11:55:02;;;;;;;3.78;1.20;;;;;;;18.04;59.43;102792.94;6346611;22;20003;-80
2022/10/11 11:57:52;;;;;;;2.35;1.10;;;;;;;18.05;59.58;102792.13;6348284;22;20002;-79
2022/10/11 12:00:24;;;;;;;1.80;1.08;;;;;;;18.07;59.35;102792.13;6345041;22;20010;-79
2022/10/11 12:02:59;;;;;;;1.88;1.13;;;;;;;18.07;59.43;102792.13;6372344;22;20056;-77
2022/10/11 12:05:28;;;;;;;2.22;1.02;;;;;;;18.09;58.73;102793.03;6347107;22;20003;-80
2022/10/11 12:07:58;;;;;;;2.85;1.30;;;;;;;18.08;59.21;102786.97;6345977;22;20448;-79
2022/10/11 12:10:30;;;;;;;2.90;1.10;;;;;;;18.08;59.26;102784.34;6345811;22;20006;-78
2022/10/11 12:13:05;;;;;;;2.70;1.10;;;;;;;18.07;59.61;102786.91;6345604;22;20006;-81
2022/10/11 12:15:31;;;;;;;2.85;1.27;;;;;;;18.05;59.69;102791.22;6374162;22;20004;-77